createdAt,value
2018-06-18T00:00:13.291Z,995.79
2018-06-18T00:01:13.296Z,995.78
2018-06-18T00:02:13.312Z,995.78
2018-06-18T00:03:13.301Z,995.81
2018-06-18T00:04:13.300Z,995.83
2018-06-18T00:05:13.308Z,995.85
2018-06-18T00:06:13.296Z,995.82
2018-06-18T00:07:13.300Z,995.82
2018-06-18T00:08:13.300Z,995.79
2018-06-18T00:09:13.304Z,995.77
2018-06-18T00:10:13.314Z,995.81
2018-06-18T00:11:13.304Z,995.78
2018-06-18T00:12:13.305Z,995.81
2018-06-18T00:13:13.302Z,995.82
2018-06-18T00:14:13.310Z,995.81
2018-06-18T00:15:13.313Z,995.8
2018-06-18T00:16:13.315Z,995.82
2018-06-18T00:17:13.308Z,995.77
2018-06-18T00:18:13.311Z,995.77
2018-06-18T00:19:13.313Z,995.73
2018-06-18T00:20:13.313Z,995.76
2018-06-18T00:21:13.317Z,995.76
2018-06-18T00:22:13.316Z,995.8
2018-06-18T00:23:13.319Z,995.75
2018-06-18T00:24:13.317Z,995.74
2018-06-18T00:25:13.337Z,995.7
2018-06-18T00:26:13.320Z,995.73
2018-06-18T00:27:13.575Z,995.66
2018-06-18T00:28:13.321Z,995.68
2018-06-18T00:29:13.323Z,995.7
2018-06-18T00:30:13.336Z,995.71
2018-06-18T00:31:13.328Z,995.71
2018-06-18T00:32:13.329Z,995.72
2018-06-18T00:33:13.340Z,995.74
2018-06-18T00:34:13.330Z,995.76
2018-06-18T00:35:13.330Z,995.74
2018-06-18T00:36:13.338Z,995.75
2018-06-18T00:37:13.335Z,995.77
2018-06-18T00:38:13.336Z,995.79
2018-06-18T00:39:13.338Z,995.76
2018-06-18T00:40:13.342Z,995.78
2018-06-18T00:41:13.341Z,995.78
2018-06-18T00:42:13.342Z,995.79
2018-06-18T00:43:13.340Z,995.75
2018-06-18T00:44:13.341Z,995.78
2018-06-18T00:45:13.344Z,995.77
2018-06-18T00:46:13.342Z,995.76
2018-06-18T00:47:13.344Z,995.8
2018-06-18T00:48:13.345Z,995.79
2018-06-18T00:49:13.346Z,995.83
2018-06-18T00:50:13.349Z,995.84
2018-06-18T00:51:13.349Z,995.79
2018-06-18T00:52:13.350Z,995.83
2018-06-18T00:53:13.352Z,995.83
2018-06-18T00:54:13.354Z,995.85
2018-06-18T00:55:13.355Z,995.83
2018-06-18T00:56:13.360Z,995.8
2018-06-18T00:57:18.165Z,995.8
2018-06-18T00:58:13.360Z,995.83
2018-06-18T00:59:13.359Z,995.83
2018-06-18T01:00:13.359Z,995.82
2018-06-18T01:01:13.360Z,995.84
2018-06-18T01:02:13.361Z,995.82
2018-06-18T01:03:13.366Z,995.85
2018-06-18T01:04:13.369Z,995.81
2018-06-18T01:05:13.366Z,995.85
2018-06-18T01:06:13.368Z,995.84
2018-06-18T01:07:13.369Z,995.82
2018-06-18T01:08:13.369Z,995.82
2018-06-18T01:09:13.372Z,995.78
2018-06-18T01:10:13.374Z,995.78
2018-06-18T01:11:13.376Z,995.78
2018-06-18T01:12:13.372Z,995.74
2018-06-18T01:13:13.375Z,995.76
2018-06-18T01:14:13.376Z,995.73
2018-06-18T01:15:13.380Z,995.72
2018-06-18T01:16:13.379Z,995.71
2018-06-18T01:17:13.377Z,995.72
2018-06-18T01:18:13.413Z,995.73
2018-06-18T01:19:13.387Z,995.68
2018-06-18T01:20:13.384Z,995.66
2018-06-18T01:21:13.385Z,995.64
2018-06-18T01:22:13.385Z,995.7
2018-06-18T01:23:13.386Z,995.7
2018-06-18T01:24:13.387Z,995.66
2018-06-18T01:25:13.390Z,995.71
2018-06-18T01:26:13.400Z,995.74
2018-06-18T01:27:13.391Z,995.71
2018-06-18T01:28:13.389Z,995.74
2018-06-18T01:29:13.393Z,995.75
2018-06-18T01:30:13.397Z,995.76
2018-06-18T01:31:13.397Z,995.76
2018-06-18T01:32:13.397Z,995.73
2018-06-18T01:33:13.396Z,995.76
2018-06-18T01:34:13.398Z,995.78
2018-06-18T01:35:13.401Z,995.82
2018-06-18T01:36:13.402Z,995.8
2018-06-18T01:37:13.402Z,995.83
2018-06-18T01:38:13.406Z,995.81
2018-06-18T01:39:13.404Z,995.84
2018-06-18T01:40:13.403Z,995.84
2018-06-18T01:41:13.409Z,995.84
2018-06-18T01:42:13.415Z,995.82
2018-06-18T01:43:13.409Z,995.82
2018-06-18T01:44:13.406Z,995.82
2018-06-18T01:45:13.410Z,995.81
2018-06-18T01:46:13.412Z,995.82
2018-06-18T01:47:13.421Z,995.82
2018-06-18T01:48:13.413Z,995.84
2018-06-18T01:49:13.422Z,995.87
2018-06-18T01:50:13.417Z,995.92
2018-06-18T01:51:13.417Z,995.86
2018-06-18T01:52:13.417Z,995.94
2018-06-18T01:53:13.418Z,995.94
2018-06-18T01:54:13.422Z,995.92
2018-06-18T01:55:13.425Z,995.95
2018-06-18T01:56:13.421Z,995.93
2018-06-18T01:57:13.439Z,995.94
2018-06-18T01:58:14.377Z,995.94
2018-06-18T01:59:13.438Z,995.95
2018-06-18T02:00:13.425Z,995.94
2018-06-18T02:01:13.428Z,995.9
2018-06-18T02:02:13.430Z,995.9
2018-06-18T02:03:13.428Z,995.84
2018-06-18T02:04:13.432Z,995.82
2018-06-18T02:05:13.450Z,995.82
2018-06-18T02:06:13.432Z,995.86
2018-06-18T02:07:13.433Z,995.8
2018-06-18T02:08:13.433Z,995.83
2018-06-18T02:09:13.435Z,995.88
2018-06-18T02:10:13.441Z,995.81
2018-06-18T02:11:13.436Z,995.86
2018-06-18T02:12:13.437Z,995.79
2018-06-18T02:13:13.437Z,995.76
2018-06-18T02:14:13.440Z,995.73
2018-06-18T02:15:13.449Z,995.68
2018-06-18T02:16:13.470Z,995.63
2018-06-18T02:17:13.443Z,995.59
2018-06-18T02:18:13.445Z,995.64
2018-06-18T02:19:13.444Z,995.67
2018-06-18T02:20:13.445Z,995.72
2018-06-18T02:21:13.447Z,995.72
2018-06-18T02:22:13.448Z,995.75
2018-06-18T02:23:13.449Z,995.79
2018-06-18T02:24:13.451Z,995.84
2018-06-18T02:25:13.452Z,995.89
2018-06-18T02:26:13.451Z,995.9
2018-06-18T02:27:13.456Z,995.94
2018-06-18T02:28:13.454Z,995.92
2018-06-18T02:29:13.455Z,995.99
2018-06-18T02:30:13.457Z,995.98
2018-06-18T02:31:13.477Z,995.96
2018-06-18T02:32:13.462Z,995.98
2018-06-18T02:33:13.460Z,996.02
2018-06-18T02:34:13.479Z,996.02
2018-06-18T02:35:13.468Z,996
2018-06-18T02:36:13.464Z,995.99
2018-06-18T02:37:13.467Z,995.96
2018-06-18T02:38:13.466Z,995.94
2018-06-18T02:39:13.468Z,995.92
2018-06-18T02:40:13.464Z,995.86
2018-06-18T02:41:13.467Z,995.88
2018-06-18T02:42:13.469Z,995.92
2018-06-18T02:43:13.474Z,995.95
2018-06-18T02:44:13.471Z,995.94
2018-06-18T02:45:13.472Z,995.95
2018-06-18T02:46:13.472Z,995.97
2018-06-18T02:47:13.483Z,995.98
2018-06-18T02:48:13.476Z,996
2018-06-18T02:49:13.475Z,996.01
2018-06-18T02:50:13.477Z,996.01
2018-06-18T02:51:13.483Z,995.97
2018-06-18T02:52:13.479Z,995.98
2018-06-18T02:53:13.480Z,995.94
2018-06-18T02:54:13.485Z,995.93
2018-06-18T02:55:13.488Z,995.93
2018-06-18T02:56:13.483Z,995.89
2018-06-18T02:57:13.482Z,995.86
2018-06-18T02:58:13.483Z,995.84
2018-06-18T02:59:13.486Z,995.85
2018-06-18T03:00:13.488Z,995.87
2018-06-18T03:01:13.485Z,995.86
2018-06-18T03:02:13.492Z,995.83
2018-06-18T03:03:13.488Z,995.86
2018-06-18T03:04:13.489Z,995.9
2018-06-18T03:05:13.491Z,995.9
2018-06-18T03:06:13.490Z,995.89
2018-06-18T03:07:13.491Z,995.92
2018-06-18T03:08:13.494Z,995.94
2018-06-18T03:09:13.508Z,995.99
2018-06-18T03:10:13.502Z,995.94
2018-06-18T03:11:13.497Z,995.98
2018-06-18T03:12:13.511Z,995.97
2018-06-18T03:13:13.499Z,995.96
2018-06-18T03:14:13.497Z,995.98
2018-06-18T03:15:13.516Z,995.95
2018-06-18T03:16:13.512Z,995.96
2018-06-18T03:17:13.516Z,995.91
2018-06-18T03:18:13.516Z,995.95
2018-06-18T03:19:13.513Z,995.95
2018-06-18T03:20:13.513Z,995.89
2018-06-18T03:21:13.518Z,995.87
2018-06-18T03:22:13.516Z,995.85
2018-06-18T03:23:13.519Z,995.87
2018-06-18T03:24:13.523Z,995.93
2018-06-18T03:25:13.513Z,995.9
2018-06-18T03:26:13.519Z,995.93
2018-06-18T03:27:13.515Z,995.94
2018-06-18T03:28:13.514Z,995.91
2018-06-18T03:29:13.518Z,995.88
2018-06-18T03:30:13.525Z,995.91
2018-06-18T03:31:13.516Z,995.89
2018-06-18T03:32:13.525Z,995.93
2018-06-18T03:33:13.521Z,995.89
2018-06-18T03:34:13.521Z,995.88
2018-06-18T03:35:13.519Z,995.88
2018-06-18T03:36:13.517Z,995.89
2018-06-18T03:37:13.541Z,995.97
2018-06-18T03:38:13.519Z,996.03
2018-06-18T03:39:13.518Z,996.1
2018-06-18T03:40:13.522Z,996.14
2018-06-18T03:41:13.522Z,996.17
2018-06-18T03:42:13.529Z,996.2
2018-06-18T03:43:13.523Z,996.15
2018-06-18T03:44:13.521Z,996.12
2018-06-18T03:45:13.524Z,996.08
2018-06-18T03:46:13.527Z,996.03
2018-06-18T03:47:13.524Z,996.03
2018-06-18T03:48:13.533Z,996
2018-06-18T03:49:13.528Z,995.95
2018-06-18T03:50:13.529Z,995.97
2018-06-18T03:51:13.528Z,995.98
2018-06-18T03:52:13.527Z,995.98
2018-06-18T03:53:13.531Z,996
2018-06-18T03:54:13.531Z,996.02
2018-06-18T03:55:13.531Z,996.05
2018-06-18T03:56:13.543Z,996.08
2018-06-18T03:57:13.532Z,996.07
2018-06-18T03:58:13.536Z,996.09
2018-06-18T03:59:13.533Z,996.13
2018-06-18T04:00:13.536Z,996.16
2018-06-18T04:01:13.538Z,996.13
2018-06-18T04:02:13.538Z,996.17
2018-06-18T04:03:13.548Z,996.16
2018-06-18T04:04:13.539Z,996.17
2018-06-18T04:05:13.545Z,996.22
2018-06-18T04:06:13.541Z,996.18
2018-06-18T04:07:13.545Z,996.2
2018-06-18T04:08:13.545Z,996.17
2018-06-18T04:09:13.543Z,996.11
2018-06-18T04:10:13.548Z,996.12
2018-06-18T04:11:13.544Z,996.15
2018-06-18T04:12:13.557Z,996.15
2018-06-18T04:13:13.548Z,996.23
2018-06-18T04:14:13.548Z,996.23
2018-06-18T04:15:13.550Z,996.31
2018-06-18T04:16:13.555Z,996.25
2018-06-18T04:17:13.554Z,996.25
2018-06-18T04:18:13.554Z,996.21
2018-06-18T04:19:13.557Z,996.18
2018-06-18T04:20:13.564Z,996.15
2018-06-18T04:21:13.563Z,996.12
2018-06-18T04:22:13.559Z,996.09
2018-06-18T04:23:13.566Z,996.08
2018-06-18T04:24:13.561Z,996.05
2018-06-18T04:25:13.563Z,996.08
2018-06-18T04:26:13.564Z,996.07
2018-06-18T04:27:13.572Z,996.12
2018-06-18T04:28:13.566Z,996.13
2018-06-18T04:29:13.568Z,996.18
2018-06-18T04:30:13.573Z,996.11
2018-06-18T04:31:13.574Z,996.1
2018-06-18T04:32:13.571Z,996.09
2018-06-18T04:33:13.573Z,996.09
2018-06-18T04:34:13.575Z,996.1
2018-06-18T04:35:13.576Z,996.15
2018-06-18T04:36:13.578Z,996.2
2018-06-18T04:37:13.580Z,996.22
2018-06-18T04:38:13.580Z,996.29
2018-06-18T04:39:13.581Z,996.26
2018-06-18T04:40:13.582Z,996.28
2018-06-18T04:41:13.590Z,996.3
2018-06-18T04:42:13.584Z,996.28
2018-06-18T04:43:13.588Z,996.41
2018-06-18T04:44:13.590Z,996.53
2018-06-18T04:45:13.591Z,996.38
2018-06-18T04:46:13.594Z,996.43
2018-06-18T04:47:13.593Z,996.56
2018-06-18T04:48:13.596Z,996.55
2018-06-18T04:49:13.598Z,996.52
2018-06-18T04:50:13.600Z,996.57
2018-06-18T04:51:13.603Z,996.56
2018-06-18T04:52:13.605Z,996.62
2018-06-18T04:53:13.607Z,996.58
2018-06-18T04:54:13.609Z,996.64
2018-06-18T04:55:13.614Z,996.61
2018-06-18T04:56:13.622Z,996.54
2018-06-18T04:57:13.621Z,996.51
2018-06-18T04:58:13.625Z,996.55
2018-06-18T04:59:13.781Z,996.58
2018-06-18T05:00:13.639Z,996.61
2018-06-18T05:01:13.637Z,996.38
2018-06-18T05:02:13.647Z,996.38
2018-06-18T05:03:13.651Z,996.37
2018-06-18T05:04:13.658Z,996.38
2018-06-18T05:05:13.664Z,996.44
2018-06-18T05:06:13.666Z,996.51
2018-06-18T05:07:13.672Z,996.52
2018-06-18T05:08:13.677Z,996.54
2018-06-18T05:09:14.481Z,996.51
2018-06-18T05:10:13.688Z,996.48
2018-06-18T05:11:13.691Z,996.53
2018-06-18T05:12:13.691Z,996.45
2018-06-18T05:13:13.698Z,996.45
2018-06-18T05:14:13.704Z,996.52
2018-06-18T05:15:13.705Z,996.49
2018-06-18T05:16:13.711Z,996.54
2018-06-18T05:17:13.723Z,996.53
2018-06-18T05:18:13.722Z,996.54
2018-06-18T05:19:13.725Z,996.57
2018-06-18T05:20:13.726Z,996.57
2018-06-18T05:21:13.731Z,996.56
2018-06-18T05:22:13.734Z,996.59
2018-06-18T05:23:13.738Z,996.53
2018-06-18T05:24:13.741Z,996.57
2018-06-18T05:25:13.749Z,996.54
2018-06-18T05:26:13.754Z,996.51
2018-06-18T05:27:13.756Z,996.53
2018-06-18T05:28:13.761Z,996.53
2018-06-18T05:29:13.763Z,996.56
2018-06-18T05:30:13.765Z,996.52
2018-06-18T05:31:13.769Z,996.54
2018-06-18T05:32:13.777Z,996.56
2018-06-18T05:33:13.779Z,996.56
2018-06-18T05:34:13.777Z,996.72
2018-06-18T05:35:13.785Z,996.59
2018-06-18T05:36:13.787Z,996.55
2018-06-18T05:37:13.794Z,996.63
2018-06-18T05:38:13.793Z,996.58
2018-06-18T05:39:13.797Z,996.63
2018-06-18T05:40:13.807Z,996.7
2018-06-18T05:41:13.806Z,996.69
2018-06-18T05:42:13.852Z,996.64
2018-06-18T05:43:13.813Z,996.67
2018-06-18T05:44:13.819Z,996.69
2018-06-18T05:45:13.820Z,996.67
2018-06-18T05:46:13.826Z,996.61
2018-06-18T05:47:13.832Z,996.64
2018-06-18T05:48:13.833Z,996.62
2018-06-18T05:49:13.850Z,996.61
2018-06-18T05:50:13.850Z,996.63
2018-06-18T05:51:14.069Z,996.63
2018-06-18T05:52:13.848Z,996.67
2018-06-18T05:53:13.850Z,996.7
2018-06-18T05:54:13.869Z,996.69
2018-06-18T05:55:13.856Z,996.75
2018-06-18T05:56:13.877Z,996.71
2018-06-18T05:57:13.873Z,996.7
2018-06-18T05:58:13.870Z,996.74
2018-06-18T05:59:13.875Z,996.74
2018-06-18T06:00:13.877Z,996.71
2018-06-18T06:01:13.882Z,996.74
2018-06-18T06:02:13.888Z,996.74
2018-06-18T06:03:13.887Z,996.71
2018-06-18T06:04:13.891Z,996.67
2018-06-18T06:05:13.926Z,996.72
2018-06-18T06:06:13.909Z,996.79
2018-06-18T06:07:13.907Z,996.83
2018-06-18T06:08:13.910Z,996.8
2018-06-18T06:09:13.907Z,996.81
2018-06-18T06:10:13.930Z,996.81
2018-06-18T06:11:13.930Z,996.87
2018-06-18T06:12:13.927Z,996.85
2018-06-18T06:13:13.924Z,996.87
2018-06-18T06:23:56.300Z,996.84
2018-06-18T06:24:56.301Z,996.82
2018-06-18T06:25:56.300Z,996.83
2018-06-18T06:26:56.302Z,996.85
2018-06-18T06:27:56.308Z,996.85
2018-06-18T06:28:56.306Z,996.86
2018-06-18T06:29:56.308Z,996.87
2018-06-18T06:30:56.306Z,996.85
2018-06-18T06:31:56.309Z,996.85
2018-06-18T06:32:56.311Z,996.87
2018-06-18T06:33:56.314Z,996.85
2018-06-18T06:34:56.317Z,996.83
2018-06-18T06:35:56.320Z,996.85
2018-06-18T06:36:56.322Z,996.82
2018-06-18T06:37:56.330Z,996.82
2018-06-18T06:38:56.343Z,996.83
2018-06-18T06:39:56.332Z,996.83
2018-06-18T06:40:56.348Z,996.87
2018-06-18T06:41:56.337Z,996.89
2018-06-18T06:42:56.339Z,996.93
2018-06-18T06:43:56.351Z,996.89
2018-06-18T06:44:56.348Z,996.92
2018-06-18T06:45:56.351Z,996.96
2018-06-18T06:46:56.359Z,996.93
2018-06-18T06:47:56.357Z,996.96
2018-06-18T06:48:56.433Z,996.97
2018-06-18T06:49:56.365Z,996.95
2018-06-18T06:50:56.368Z,996.92
2018-06-18T06:51:56.374Z,996.92
2018-06-18T06:52:56.375Z,996.95
2018-06-18T06:53:56.403Z,996.95
2018-06-18T06:54:56.387Z,997
2018-06-18T06:55:56.446Z,996.96
2018-06-18T06:56:56.390Z,996.99
2018-06-18T06:57:56.398Z,997
2018-06-18T06:58:56.399Z,997
2018-06-18T06:59:56.402Z,997.01
2018-06-18T07:00:56.405Z,997.1
2018-06-18T07:01:56.416Z,997.06
2018-06-18T07:02:56.426Z,997.09
2018-06-18T07:03:56.416Z,997.05
2018-06-18T07:04:56.420Z,997.08
2018-06-18T07:05:56.424Z,997.11
2018-06-18T07:06:56.439Z,997.04
2018-06-18T07:07:56.457Z,997.05
2018-06-18T07:08:56.436Z,997.05
2018-06-18T07:09:56.441Z,997.09
2018-06-18T07:10:56.442Z,997.1
2018-06-18T07:11:56.453Z,997.09
2018-06-18T07:12:56.457Z,997.11
2018-06-18T07:13:56.454Z,997.11
2018-06-18T07:14:56.458Z,997.11
2018-06-18T07:15:56.460Z,997.11
2018-06-18T07:16:56.467Z,997.16
2018-06-18T07:17:56.468Z,997.08
2018-06-18T07:18:56.478Z,997.12
2018-06-18T07:19:56.476Z,997.12
2018-06-18T07:20:56.480Z,997.14
2018-06-18T07:21:56.483Z,997.16
2018-06-18T07:22:56.490Z,997.14
2018-06-18T07:23:56.494Z,997.18
2018-06-18T07:24:56.494Z,997.15
2018-06-18T07:25:56.513Z,997.1
2018-06-18T07:26:56.519Z,997.06
2018-06-18T07:27:56.509Z,997.07
2018-06-18T07:28:56.511Z,997.08
2018-06-18T07:29:56.515Z,997.05
2018-06-18T07:30:56.591Z,997.07
2018-06-18T07:31:56.535Z,997.06
2018-06-18T07:32:56.524Z,997.09
2018-06-18T07:33:56.530Z,997.1
2018-06-18T07:34:56.534Z,997.11
2018-06-18T07:35:56.540Z,997.14
2018-06-18T07:36:56.543Z,997.11
2018-06-18T07:37:56.557Z,997.1
2018-06-18T07:38:56.550Z,997.11
2018-06-18T07:39:56.554Z,997.04
2018-06-18T07:40:56.559Z,997.04
2018-06-18T07:41:56.561Z,997.02
2018-06-18T07:42:56.568Z,997.06
2018-06-18T07:43:56.572Z,997.09
2018-06-18T07:44:56.577Z,997.07
2018-06-18T07:45:56.585Z,997.09
2018-06-18T07:46:56.579Z,997.08
2018-06-18T07:47:56.598Z,997.09
2018-06-18T07:48:56.618Z,997.1
2018-06-18T07:49:56.595Z,997.08
2018-06-18T07:50:56.598Z,997.07
2018-06-18T07:51:56.602Z,997.09
2018-06-18T07:52:56.607Z,997.09
2018-06-18T07:53:56.629Z,997.12
2018-06-18T07:54:56.618Z,997.16
2018-06-18T07:55:56.622Z,997.09
2018-06-18T07:56:56.626Z,997.08
2018-06-18T07:57:56.659Z,997.04
2018-06-18T07:58:56.635Z,997.06
2018-06-18T07:59:56.641Z,997.04
2018-06-18T08:00:56.647Z,997.01
2018-06-18T08:01:56.648Z,997
2018-06-18T08:02:56.666Z,996.99
2018-06-18T08:03:56.668Z,997.03
2018-06-18T08:04:56.672Z,997.04
2018-06-18T08:05:56.668Z,997.06
2018-06-18T08:06:56.676Z,997.04
2018-06-18T08:07:56.682Z,997.04
2018-06-18T08:08:56.686Z,997.05
2018-06-18T08:09:56.816Z,997.1
2018-06-18T08:10:56.692Z,997.12
2018-06-18T08:11:56.703Z,997.14
2018-06-18T08:12:56.705Z,997.13
2018-06-18T08:13:56.707Z,997.1
2018-06-18T08:14:56.747Z,997.11
2018-06-18T08:15:56.721Z,997.09
2018-06-18T08:16:56.739Z,997.14
2018-06-18T08:17:56.733Z,997.04
2018-06-18T08:18:56.736Z,997.02
2018-06-18T08:19:56.739Z,997.04
2018-06-18T08:20:56.753Z,997.07
2018-06-18T08:21:56.754Z,997.04
2018-06-18T08:22:56.758Z,997.03
2018-06-18T08:23:56.762Z,997.07
2018-06-18T08:24:56.767Z,997.02
2018-06-18T08:25:56.776Z,997.1
2018-06-18T08:26:56.821Z,997.21
2018-06-18T08:27:56.788Z,997.15
2018-06-18T08:28:56.789Z,997.26
2018-06-18T08:29:56.796Z,997.2
2018-06-18T08:30:56.801Z,997.21
2018-06-18T08:31:56.815Z,997.29
2018-06-18T08:32:56.812Z,997.37
2018-06-18T08:33:56.820Z,997.29
2018-06-18T08:34:56.888Z,997.12
2018-06-18T08:35:56.834Z,997.19
2018-06-18T08:36:56.837Z,997.07
2018-06-18T08:37:56.843Z,997.04
2018-06-18T08:38:56.852Z,997.11
2018-06-18T08:39:56.869Z,997.14
2018-06-18T08:40:56.865Z,997.12
2018-06-18T08:41:56.867Z,997.17
2018-06-18T08:42:56.872Z,997.13
2018-06-18T08:43:56.880Z,997.18
2018-06-18T08:44:56.887Z,997.2
2018-06-18T08:45:56.893Z,997.15
2018-06-18T08:46:56.898Z,997.12
2018-06-18T08:47:56.904Z,997.27
2018-06-18T08:48:56.909Z,997.26
2018-06-18T08:49:56.912Z,997.24
2018-06-18T08:50:56.916Z,997.14
2018-06-18T08:51:56.935Z,997.11
2018-06-18T08:52:56.928Z,997.05
2018-06-18T08:53:56.931Z,997.08
2018-06-18T08:54:56.939Z,997.07
2018-06-18T08:55:56.949Z,997.03
2018-06-18T08:56:56.948Z,997.05
2018-06-18T08:57:57.052Z,997.16
2018-06-18T08:58:56.965Z,997.15
2018-06-18T08:59:56.964Z,997.25
2018-06-18T09:00:56.971Z,997.2
2018-06-18T09:01:56.973Z,997.23
2018-06-18T09:02:56.979Z,997.31
2018-06-18T09:03:56.981Z,997.27
2018-06-18T09:04:56.990Z,997.21
2018-06-18T09:05:56.996Z,997.15
2018-06-18T09:06:57.006Z,997.22
2018-06-18T09:07:57.010Z,997.2
2018-06-18T09:08:57.006Z,997.21
2018-06-18T09:09:57.009Z,997.2
2018-06-18T09:10:57.017Z,997.16
2018-06-18T09:11:57.023Z,997.06
2018-06-18T09:12:57.026Z,997.09
2018-06-18T09:13:57.034Z,997.05
2018-06-18T09:14:57.034Z,997.01
2018-06-18T09:15:57.111Z,997.13
2018-06-18T09:16:57.045Z,997
2018-06-18T09:17:57.055Z,997.07
2018-06-18T09:18:57.059Z,997.01
2018-06-18T09:19:57.061Z,997.03
2018-06-18T09:20:57.072Z,997.09
2018-06-18T09:21:57.072Z,997.07
2018-06-18T09:22:57.076Z,997.1
2018-06-18T09:23:57.082Z,997.18
2018-06-18T09:24:57.090Z,997.28
2018-06-18T09:25:57.136Z,997.28
2018-06-18T09:26:57.096Z,997.29
2018-06-18T09:27:57.101Z,997.21
2018-06-18T09:28:57.107Z,997.3
2018-06-18T09:29:57.108Z,997.29
2018-06-18T09:30:57.117Z,997.27
2018-06-18T09:31:57.134Z,997.27
2018-06-18T09:32:57.124Z,997.16
2018-06-18T09:33:57.130Z,997.22
2018-06-18T09:34:57.132Z,997.16
2018-06-18T09:35:57.137Z,997.14
2018-06-18T09:36:57.150Z,997.1
2018-06-18T09:37:57.150Z,997.11
2018-06-18T09:38:57.169Z,997.15
2018-06-18T09:39:57.156Z,997.2
2018-06-18T09:40:57.163Z,997.28
2018-06-18T09:41:57.163Z,997.21
2018-06-18T09:42:57.170Z,997.16
2018-06-18T09:43:57.173Z,997.21
2018-06-18T09:44:57.179Z,997.18
2018-06-18T09:45:57.190Z,997.15
2018-06-18T09:46:57.189Z,997.11
2018-06-18T09:47:57.233Z,997.01
2018-06-18T09:48:57.197Z,997.02
2018-06-18T09:49:57.203Z,996.98
2018-06-18T09:50:57.206Z,997
2018-06-18T09:51:57.215Z,997.11
2018-06-18T09:52:57.227Z,997.11
2018-06-18T09:53:57.221Z,997.14
2018-06-18T09:54:57.230Z,997.1
2018-06-18T09:55:57.238Z,997.03
2018-06-18T09:56:57.239Z,997
2018-06-18T09:57:57.241Z,997.01
2018-06-18T09:58:57.241Z,997.01
2018-06-18T09:59:57.245Z,996.97
2018-06-18T10:00:57.260Z,997.01
2018-06-18T10:01:57.259Z,997.06
2018-06-18T10:02:57.263Z,996.97
2018-06-18T10:03:57.263Z,996.98
2018-06-18T10:04:57.267Z,997.03
2018-06-18T10:05:57.270Z,997.04
2018-06-18T10:06:57.275Z,997.16
2018-06-18T10:07:57.279Z,997.11
2018-06-18T10:08:57.291Z,997.19
2018-06-18T10:09:57.289Z,997.2
2018-06-18T10:10:57.291Z,997.13
2018-06-18T10:11:57.300Z,997.1
2018-06-18T10:12:57.302Z,997.06
2018-06-18T10:13:57.306Z,997.04
2018-06-18T10:14:57.312Z,997.09
2018-06-18T10:15:57.327Z,997.05
2018-06-18T10:16:57.327Z,997.05
2018-06-18T10:17:57.320Z,997.05
2018-06-18T10:18:57.328Z,997.04
2018-06-18T10:19:57.335Z,997.01
2018-06-18T10:20:57.336Z,996.97
2018-06-18T10:21:57.340Z,996.98
2018-06-18T10:22:57.346Z,997.05
2018-06-18T10:53:27.485Z,996.86
2018-06-18T10:54:27.486Z,996.79
2018-06-18T10:55:27.489Z,996.77
2018-06-18T10:56:27.484Z,996.73
2018-06-18T10:57:27.489Z,996.68
2018-06-18T10:58:27.490Z,996.76
2018-06-18T10:59:27.490Z,996.74
2018-06-18T11:00:27.492Z,996.75
2018-06-18T11:01:27.499Z,996.72
2018-06-18T11:02:27.502Z,996.68
2018-06-18T11:03:27.504Z,996.71
2018-06-18T11:04:27.570Z,996.68
2018-06-18T11:05:27.581Z,996.63
2018-06-18T11:06:27.511Z,996.65
2018-06-18T11:07:27.517Z,996.7
2018-06-18T11:08:27.519Z,996.75
2018-06-18T11:09:27.527Z,996.73
2018-06-18T11:10:27.528Z,996.69
2018-06-18T11:11:27.534Z,996.61
2018-06-18T11:12:27.536Z,996.63
2018-06-18T11:13:27.539Z,996.64
2018-06-18T11:14:27.560Z,996.56
2018-06-18T11:15:27.635Z,996.57
2018-06-18T11:16:27.787Z,996.66
2018-06-18T11:17:27.954Z,996.68
2018-06-18T11:18:27.569Z,996.65
2018-06-18T11:19:27.566Z,996.63
2018-06-18T11:20:27.571Z,996.62
2018-06-18T11:21:27.574Z,996.65
2018-06-18T11:22:27.583Z,996.67
2018-06-18T11:23:27.588Z,996.6
2018-06-18T11:24:27.598Z,996.68
2018-06-18T11:25:27.589Z,996.69
2018-06-18T11:26:27.730Z,996.72
2018-06-18T11:27:27.602Z,996.75
2018-06-18T11:28:27.716Z,996.68
2018-06-18T11:29:27.606Z,996.73
2018-06-18T11:30:27.611Z,996.67
2018-06-18T11:31:27.613Z,996.71
2018-06-18T11:32:27.687Z,996.71
2018-06-18T11:33:27.620Z,996.65
2018-06-18T11:34:27.626Z,996.65
2018-06-18T11:35:27.633Z,996.64
2018-06-18T11:36:27.641Z,996.6
2018-06-18T11:37:27.639Z,996.52
2018-06-18T11:38:27.646Z,996.57
2018-06-18T11:39:27.720Z,996.65
2018-06-18T11:40:27.652Z,996.67
2018-06-18T11:41:27.668Z,996.72
2018-06-18T11:42:27.677Z,996.7
2018-06-18T11:43:27.690Z,996.68
2018-06-18T11:44:27.670Z,996.68
2018-06-18T11:45:27.675Z,996.71
2018-06-18T11:46:27.679Z,996.71
2018-06-18T11:47:27.693Z,996.67
2018-06-18T11:48:27.712Z,996.67
2018-06-18T11:49:27.693Z,996.66
2018-06-18T11:50:27.708Z,996.67
2018-06-18T11:51:27.705Z,996.59
2018-06-18T11:52:27.707Z,996.63
2018-06-18T11:53:27.773Z,996.58
2018-06-18T11:54:27.723Z,996.54
2018-06-18T11:55:27.724Z,996.5
2018-06-18T11:56:27.727Z,996.5
2018-06-18T11:57:27.736Z,996.58
2018-06-18T11:58:27.776Z,996.54
2018-06-18T11:59:27.740Z,996.59
2018-06-18T12:00:27.768Z,996.55
2018-06-18T12:01:27.788Z,996.51
2018-06-18T12:02:27.754Z,996.52
2018-06-18T12:03:27.764Z,996.52
2018-06-18T12:04:27.771Z,996.5
2018-06-18T12:05:27.770Z,996.45
2018-06-18T12:06:27.772Z,996.39
2018-06-18T12:07:27.789Z,996.39
2018-06-18T12:08:27.783Z,996.4
2018-06-18T12:09:27.848Z,996.33
2018-06-18T12:10:27.793Z,996.33
2018-06-18T12:11:27.796Z,996.34
2018-06-18T12:12:27.811Z,996.34
2018-06-18T12:13:27.831Z,996.32
2018-06-18T12:14:27.839Z,996.3
2018-06-18T12:15:27.815Z,996.32
2018-06-18T12:16:27.821Z,996.32
2018-06-18T12:17:27.824Z,996.27
2018-06-18T12:18:27.830Z,996.34
2018-06-18T12:19:27.833Z,996.29
2018-06-18T12:20:27.837Z,996.3
2018-06-18T12:21:27.860Z,996.33
2018-06-18T12:22:27.846Z,996.28
2018-06-18T12:23:27.853Z,996.31
2018-06-18T12:24:27.866Z,996.28
2018-06-18T12:25:27.865Z,996.3
2018-06-18T12:26:27.870Z,996.29
2018-06-18T12:27:27.878Z,996.31
2018-06-18T12:28:27.882Z,996.24
2018-06-18T12:29:27.882Z,996.31
2018-06-18T12:30:27.887Z,996.29
2018-06-18T12:31:27.887Z,996.22
2018-06-18T12:32:27.894Z,996.24
2018-06-18T12:33:27.901Z,996.3
2018-06-18T12:34:27.906Z,996.31
2018-06-18T12:35:27.970Z,996.3
2018-06-18T12:36:27.915Z,996.33
2018-06-18T12:37:27.918Z,996.3
2018-06-18T12:38:27.928Z,996.4
2018-06-18T12:39:27.928Z,996.32
2018-06-18T12:40:27.934Z,996.23
2018-06-18T12:41:28.037Z,996.24
2018-06-18T12:42:27.961Z,996.16
2018-06-18T12:43:27.948Z,996.16
2018-06-18T12:44:27.951Z,996.18
2018-06-18T12:45:27.956Z,996.22
2018-06-18T12:46:27.960Z,996.2
2018-06-18T12:47:27.967Z,996.22
2018-06-18T12:48:27.971Z,996.22
2018-06-18T12:49:27.973Z,996.18
2018-06-18T12:50:27.978Z,996.18
2018-06-18T12:51:27.983Z,996.2
2018-06-18T12:52:27.985Z,996.13
2018-06-18T12:53:29.620Z,996.1
2018-06-18T12:54:27.998Z,996.1
2018-06-18T12:55:28.000Z,996.16
2018-06-18T12:56:28.007Z,996.16
2018-06-18T12:57:28.010Z,996.18
2018-06-18T12:58:28.032Z,996.18
2018-06-18T12:59:28.021Z,996.08
2018-06-18T13:00:28.023Z,996.03
2018-06-18T13:01:28.031Z,996.02
2018-06-18T13:02:28.038Z,996.01
2018-06-18T13:03:28.139Z,996.05
2018-06-18T13:04:28.058Z,996.07
2018-06-18T13:05:28.052Z,996.09
2018-06-18T13:06:28.053Z,996.06
2018-06-18T13:07:28.056Z,996.1
2018-06-18T13:08:28.059Z,996.17
2018-06-18T13:09:28.112Z,996.13
2018-06-18T13:10:28.068Z,996.17